sensor_id;sensor_type;location;lat;lon;timestamp;P1;durP1;ratioP1;P2;durP2;ratioP2
25045;SDS011;13044;49.304;12.840;2023-06-24T00:00:09;2.63;;;2.22;;
25045;SDS011;13044;49.304;12.840;2023-06-24T00:02:38;4.65;;;2.78;;
25045;SDS011;13044;49.304;12.840;2023-06-24T00:05:07;4.00;;;2.90;;
25045;SDS011;13044;49.304;12.840;2023-06-24T00:07:35;5.45;;;2.70;;
25045;SDS011;13044;49.304;12.840;2023-06-24T00:10:12;2.95;;;2.42;;
25045;SDS011;13044;49.304;12.840;2023-06-24T00:12:43;5.10;;;2.40;;
25045;SDS011;13044;49.304;12.840;2023-06-24T00:15:11;4.75;;;1.98;;
25045;SDS011;13044;49.304;12.840;2023-06-24T00:17:38;2.20;;;1.60;;
25045;SDS011;13044;49.304;12.840;2023-06-24T00:20:06;1.80;;;1.65;;
25045;SDS011;13044;49.304;12.840;2023-06-24T00:22:37;2.30;;;2.08;;
25045;SDS011;13044;49.304;12.840;2023-06-24T00:25:14;2.63;;;2.42;;
25045;SDS011;13044;49.304;12.840;2023-06-24T00:27:41;3.70;;;2.95;;
25045;SDS011;13044;49.304;12.840;2023-06-24T00:30:09;2.80;;;2.60;;
25045;SDS011;13044;49.304;12.840;2023-06-24T00:32:37;2.40;;;2.20;;
25045;SDS011;13044;49.304;12.840;2023-06-24T00:35:04;2.53;;;1.92;;
25045;SDS011;13044;49.304;12.840;2023-06-24T00:37:31;1.90;;;1.80;;
25045;SDS011;13044;49.304;12.840;2023-06-24T00:39:58;3.13;;;2.60;;
25045;SDS011;13044;49.304;12.840;2023-06-24T00:42:26;2.60;;;2.40;;
25045;SDS011;13044;49.304;12.840;2023-06-24T00:44:53;5.47;;;3.35;;
25045;SDS011;13044;49.304;12.840;2023-06-24T00:47:20;5.90;;;4.22;;
25045;SDS011;13044;49.304;12.840;2023-06-24T00:49:47;9.70;;;4.38;;
25045;SDS011;13044;49.304;12.840;2023-06-24T00:52:14;6.20;;;3.75;;
25045;SDS011;13044;49.304;12.840;2023-06-24T00:54:43;4.05;;;3.53;;
25045;SDS011;13044;49.304;12.840;2023-06-24T00:57:10;3.83;;;3.00;;
25045;SDS011;13044;49.304;12.840;2023-06-24T00:59:38;3.00;;;2.53;;
25045;SDS011;13044;49.304;12.840;2023-06-24T01:02:09;3.75;;;3.17;;
25045;SDS011;13044;49.304;12.840;2023-06-24T01:04:37;2.83;;;2.63;;
25045;SDS011;13044;49.304;12.840;2023-06-24T01:07:05;3.63;;;2.80;;
25045;SDS011;13044;49.304;12.840;2023-06-24T01:09:32;2.85;;;2.65;;
25045;SDS011;13044;49.304;12.840;2023-06-24T01:12:00;3.15;;;2.67;;
25045;SDS011;13044;49.304;12.840;2023-06-24T01:14:27;3.17;;;2.90;;
25045;SDS011;13044;49.304;12.840;2023-06-24T01:17:05;2.90;;;2.60;;
25045;SDS011;13044;49.304;12.840;2023-06-24T01:25:47;3.10;;;2.80;;
25045;SDS011;13044;49.304;12.840;2023-06-24T01:37:03;3.00;;;2.80;;
25045;SDS011;13044;49.304;12.840;2023-06-24T01:39:50;3.00;;;2.70;;
25045;SDS011;13044;49.304;12.840;2023-06-24T01:42:35;2.88;;;2.67;;
25045;SDS011;13044;49.304;12.840;2023-06-24T01:45:06;2.90;;;2.70;;
25045;SDS011;13044;49.304;12.840;2023-06-24T01:47:37;3.22;;;2.92;;
25045;SDS011;13044;49.304;12.840;2023-06-24T01:50:07;3.10;;;2.80;;
25045;SDS011;13044;49.304;12.840;2023-06-24T01:52:38;3.38;;;2.90;;
25045;SDS011;13044;49.304;12.840;2023-06-24T01:55:09;2.80;;;2.60;;
25045;SDS011;13044;49.304;12.840;2023-06-24T01:57:43;3.03;;;2.80;;
25045;SDS011;13044;49.304;12.840;2023-06-24T02:00:11;3.35;;;3.05;;
25045;SDS011;13044;49.304;12.840;2023-06-24T02:02:39;3.60;;;3.30;;
25045;SDS011;13044;49.304;12.840;2023-06-24T02:05:07;3.25;;;2.97;;
25045;SDS011;13044;49.304;12.840;2023-06-24T02:07:35;2.65;;;2.45;;
25045;SDS011;13044;49.304;12.840;2023-06-24T02:10:04;3.08;;;2.78;;
25045;SDS011;13044;49.304;12.840;2023-06-24T02:12:34;3.20;;;2.90;;
25045;SDS011;13044;49.304;12.840;2023-06-24T02:15:02;2.88;;;2.67;;
25045;SDS011;13044;49.304;12.840;2023-06-24T02:17:33;3.17;;;2.88;;
25045;SDS011;13044;49.304;12.840;2023-06-24T02:20:01;6.35;;;3.00;;
25045;SDS011;13044;49.304;12.840;2023-06-24T02:22:31;3.25;;;2.95;;
25045;SDS011;13044;49.304;12.840;2023-06-24T02:24:58;3.33;;;2.85;;
25045;SDS011;13044;49.304;12.840;2023-06-24T02:27:25;3.38;;;2.70;;
25045;SDS011;13044;49.304;12.840;2023-06-24T02:29:52;3.20;;;2.60;;
25045;SDS011;13044;49.304;12.840;2023-06-24T02:32:22;4.63;;;2.90;;
25045;SDS011;13044;49.304;12.840;2023-06-24T02:34:49;3.22;;;2.75;;
25045;SDS011;13044;49.304;12.840;2023-06-24T02:37:16;4.05;;;2.63;;
25045;SDS011;13044;49.304;12.840;2023-06-24T02:39:43;2.92;;;2.70;;
25045;SDS011;13044;49.304;12.840;2023-06-24T02:42:11;3.10;;;2.60;;
25045;SDS011;13044;49.304;12.840;2023-06-24T02:44:38;3.00;;;2.70;;
25045;SDS011;13044;49.304;12.840;2023-06-24T02:47:06;2.85;;;2.65;;
25045;SDS011;13044;49.304;12.840;2023-06-24T02:49:36;2.67;;;2.35;;
25045;SDS011;13044;49.304;12.840;2023-06-24T02:52:05;3.00;;;2.70;;
25045;SDS011;13044;49.304;12.840;2023-06-24T02:54:32;4.13;;;2.80;;
25045;SDS011;13044;49.304;12.840;2023-06-24T02:57:00;3.75;;;3.28;;
25045;SDS011;13044;49.304;12.840;2023-06-24T02:59:28;3.10;;;2.80;;
25045;SDS011;13044;49.304;12.840;2023-06-24T03:01:55;3.30;;;3.00;;
25045;SDS011;13044;49.304;12.840;2023-06-24T03:04:23;3.15;;;2.85;;
25045;SDS011;13044;49.304;12.840;2023-06-24T03:06:50;3.28;;;2.97;;
25045;SDS011;13044;49.304;12.840;2023-06-24T03:09:18;3.03;;;2.63;;
25045;SDS011;13044;49.304;12.840;2023-06-24T03:11:45;2.65;;;2.45;;
25045;SDS011;13044;49.304;12.840;2023-06-24T03:14:12;2.90;;;2.58;;
25045;SDS011;13044;49.304;12.840;2023-06-24T03:16:39;3.33;;;2.55;;
25045;SDS011;13044;49.304;12.840;2023-06-24T03:19:07;4.15;;;3.10;;
25045;SDS011;13044;49.304;12.840;2023-06-24T03:21:34;2.75;;;2.55;;
25045;SDS011;13044;49.304;12.840;2023-06-24T03:24:02;6.60;;;2.85;;
25045;SDS011;13044;49.304;12.840;2023-06-24T03:26:34;3.38;;;3.08;;
25045;SDS011;13044;49.304;12.840;2023-06-24T03:29:01;4.03;;;3.08;;
25045;SDS011;13044;49.304;12.840;2023-06-24T03:31:29;2.80;;;2.60;;
25045;SDS011;13044;49.304;12.840;2023-06-24T03:33:56;4.13;;;2.80;;
25045;SDS011;13044;49.304;12.840;2023-06-24T03:36:23;5.38;;;2.90;;
25045;SDS011;13044;49.304;12.840;2023-06-24T03:38:50;2.80;;;2.60;;
25045;SDS011;13044;49.304;12.840;2023-06-24T03:41:18;3.22;;;2.92;;
25045;SDS011;13044;49.304;12.840;2023-06-24T03:43:45;3.28;;;2.72;;
25045;SDS011;13044;49.304;12.840;2023-06-24T03:46:12;4.03;;;2.85;;
25045;SDS011;13044;49.304;12.840;2023-06-24T03:48:39;2.92;;;2.63;;
25045;SDS011;13044;49.304;12.840;2023-06-24T03:51:06;3.22;;;2.33;;
25045;SDS011;13044;49.304;12.840;2023-06-24T03:53:33;2.80;;;2.60;;
25045;SDS011;13044;49.304;12.840;2023-06-24T03:56:00;3.20;;;2.92;;
25045;SDS011;13044;49.304;12.840;2023-06-24T03:58:27;3.67;;;2.67;;
25045;SDS011;13044;49.304;12.840;2023-06-24T04:00:54;3.97;;;3.58;;
25045;SDS011;13044;49.304;12.840;2023-06-24T04:03:23;3.20;;;2.90;;
25045;SDS011;13044;49.304;12.840;2023-06-24T04:05:54;3.33;;;2.80;;
25045;SDS011;13044;49.304;12.840;2023-06-24T04:08:22;3.90;;;3.03;;
25045;SDS011;13044;49.304;12.840;2023-06-24T04:10:51;4.82;;;3.50;;
25045;SDS011;13044;49.304;12.840;2023-06-24T04:13:18;3.90;;;3.50;;
25045;SDS011;13044;49.304;12.840;2023-06-24T04:15:45;4.45;;;4.05;;
25045;SDS011;13044;49.304;12.840;2023-06-24T04:18:12;4.35;;;3.90;;
25045;SDS011;13044;49.304;12.840;2023-06-24T04:20:39;3.75;;;3.38;;
25045;SDS011;13044;49.304;12.840;2023-06-24T04:23:06;4.32;;;3.55;;
25045;SDS011;13044;49.304;12.840;2023-06-24T04:25:35;5.75;;;3.83;;
25045;SDS011;13044;49.304;12.840;2023-06-24T04:28:03;3.97;;;3.60;;
25045;SDS011;13044;49.304;12.840;2023-06-24T04:30:33;4.35;;;3.50;;
25045;SDS011;13044;49.304;12.840;2023-06-24T04:33:01;5.25;;;4.00;;
25045;SDS011;13044;49.304;12.840;2023-06-24T04:35:28;4.25;;;3.85;;
25045;SDS011;13044;49.304;12.840;2023-06-24T04:37:56;4.07;;;3.53;;
25045;SDS011;13044;49.304;12.840;2023-06-24T04:40:23;3.55;;;3.20;;
25045;SDS011;13044;49.304;12.840;2023-06-24T04:42:50;4.35;;;3.58;;
25045;SDS011;13044;49.304;12.840;2023-06-24T04:45:17;4.03;;;3.63;;
25045;SDS011;13044;49.304;12.840;2023-06-24T04:47:44;4.00;;;3.60;;
25045;SDS011;13044;49.304;12.840;2023-06-24T04:50:11;6.95;;;4.30;;
25045;SDS011;13044;49.304;12.840;2023-06-24T04:52:38;6.55;;;4.43;;
25045;SDS011;13044;49.304;12.840;2023-06-24T04:55:05;6.38;;;4.35;;
25045;SDS011;13044;49.304;12.840;2023-06-24T04:57:33;6.10;;;4.35;;
25045;SDS011;13044;49.304;12.840;2023-06-24T05:00:03;5.53;;;4.13;;
25045;SDS011;13044;49.304;12.840;2023-06-24T05:02:30;3.80;;;3.40;;
25045;SDS011;13044;49.304;12.840;2023-06-24T05:04:57;5.63;;;3.83;;
25045;SDS011;13044;49.304;12.840;2023-06-24T05:07:25;4.68;;;3.83;;
25045;SDS011;13044;49.304;12.840;2023-06-24T05:09:52;8.65;;;4.25;;
25045;SDS011;13044;49.304;12.840;2023-06-24T05:12:19;4.18;;;3.70;;
25045;SDS011;13044;49.304;12.840;2023-06-24T05:14:49;4.82;;;3.55;;
25045;SDS011;13044;49.304;12.840;2023-06-24T05:17:19;5.97;;;4.13;;
25045;SDS011;13044;49.304;12.840;2023-06-24T05:19:47;5.10;;;4.57;;
25045;SDS011;13044;49.304;12.840;2023-06-24T05:22:14;4.50;;;4.10;;
25045;SDS011;13044;49.304;12.840;2023-06-24T05:24:41;5.85;;;3.92;;
25045;SDS011;13044;49.304;12.840;2023-06-24T05:27:08;4.60;;;4.00;;
25045;SDS011;13044;49.304;12.840;2023-06-24T05:29:35;5.00;;;4.38;;
25045;SDS011;13044;49.304;12.840;2023-06-24T05:32:02;6.55;;;4.75;;
25045;SDS011;13044;49.304;12.840;2023-06-24T05:34:30;3.70;;;3.40;;
25045;SDS011;13044;49.304;12.840;2023-06-24T05:36:57;4.40;;;3.92;;
25045;SDS011;13044;49.304;12.840;2023-06-24T05:39:24;4.88;;;3.97;;
25045;SDS011;13044;49.304;12.840;2023-06-24T05:41:51;4.25;;;3.85;;
25045;SDS011;13044;49.304;12.840;2023-06-24T05:44:18;4.60;;;3.92;;
25045;SDS011;13044;49.304;12.840;2023-06-24T05:46:46;7.63;;;5.88;;
25045;SDS011;13044;49.304;12.840;2023-06-24T05:49:13;5.32;;;4.82;;
25045;SDS011;13044;49.304;12.840;2023-06-24T05:51:40;5.10;;;4.43;;
25045;SDS011;13044;49.304;12.840;2023-06-24T05:54:06;4.53;;;4.10;;
25045;SDS011;13044;49.304;12.840;2023-06-24T05:56:34;5.72;;;4.72;;
25045;SDS011;13044;49.304;12.840;2023-06-24T05:59:05;4.43;;;4.00;;
25045;SDS011;13044;49.304;12.840;2023-06-24T06:01:32;6.10;;;4.90;;
25045;SDS011;13044;49.304;12.840;2023-06-24T06:03:59;5.82;;;4.20;;
25045;SDS011;13044;49.304;12.840;2023-06-24T06:06:26;4.60;;;4.20;;
25045;SDS011;13044;49.304;12.840;2023-06-24T06:08:53;4.97;;;4.05;;
25045;SDS011;13044;49.304;12.840;2023-06-24T06:11:20;4.22;;;3.83;;
25045;SDS011;13044;49.304;12.840;2023-06-24T06:13:46;9.07;;;4.97;;
25045;SDS011;13044;49.304;12.840;2023-06-24T06:16:13;4.90;;;4.40;;
25045;SDS011;13044;49.304;12.840;2023-06-24T06:18:40;5.40;;;4.53;;
25045;SDS011;13044;49.304;12.840;2023-06-24T06:21:07;5.78;;;4.72;;
25045;SDS011;13044;49.304;12.840;2023-06-24T06:23:34;7.43;;;4.90;;
25045;SDS011;13044;49.304;12.840;2023-06-24T06:26:01;5.80;;;4.43;;
25045;SDS011;13044;49.304;12.840;2023-06-24T06:28:28;4.60;;;4.20;;
25045;SDS011;13044;49.304;12.840;2023-06-24T06:30:55;5.35;;;4.70;;
25045;SDS011;13044;49.304;12.840;2023-06-24T06:33:23;5.30;;;4.80;;
25045;SDS011;13044;49.304;12.840;2023-06-24T06:35:50;4.22;;;3.83;;
25045;SDS011;13044;49.304;12.840;2023-06-24T06:38:17;6.45;;;4.95;;
25045;SDS011;13044;49.304;12.840;2023-06-24T06:40:43;5.53;;;4.38;;
25045;SDS011;13044;49.304;12.840;2023-06-24T06:43:10;4.68;;;4.28;;
25045;SDS011;13044;49.304;12.840;2023-06-24T06:45:37;5.65;;;5.07;;
25045;SDS011;13044;49.304;12.840;2023-06-24T06:48:05;5.13;;;4.13;;
25045;SDS011;13044;49.304;12.840;2023-06-24T06:50:34;5.47;;;4.70;;
25045;SDS011;13044;49.304;12.840;2023-06-24T06:53:01;5.95;;;5.18;;
25045;SDS011;13044;49.304;12.840;2023-06-24T06:55:28;6.53;;;5.00;;
25045;SDS011;13044;49.304;12.840;2023-06-24T06:57:55;4.53;;;4.13;;
25045;SDS011;13044;49.304;12.840;2023-06-24T07:00:22;4.85;;;4.45;;
25045;SDS011;13044;49.304;12.840;2023-06-24T07:02:49;5.65;;;4.25;;
25045;SDS011;13044;49.304;12.840;2023-06-24T07:05:16;6.43;;;4.40;;
25045;SDS011;13044;49.304;12.840;2023-06-24T07:07:43;6.28;;;4.13;;
25045;SDS011;13044;49.304;12.840;2023-06-24T07:10:11;5.15;;;4.35;;
25045;SDS011;13044;49.304;12.840;2023-06-24T07:12:39;4.70;;;4.30;;
25045;SDS011;13044;49.304;12.840;2023-06-24T07:15:06;5.70;;;4.65;;
25045;SDS011;13044;49.304;12.840;2023-06-24T07:17:36;6.03;;;4.95;;
25045;SDS011;13044;49.304;12.840;2023-06-24T07:20:03;5.85;;;4.78;;
25045;SDS011;13044;49.304;12.840;2023-06-24T07:22:31;5.82;;;4.00;;
25045;SDS011;13044;49.304;12.840;2023-06-24T07:24:58;5.43;;;4.93;;
25045;SDS011;13044;49.304;12.840;2023-06-24T07:27:26;5.40;;;4.72;;
25045;SDS011;13044;49.304;12.840;2023-06-24T07:29:53;4.85;;;4.32;;
25045;SDS011;13044;49.304;12.840;2023-06-24T07:32:20;4.82;;;3.85;;
25045;SDS011;13044;49.304;12.840;2023-06-24T07:34:47;5.60;;;5.00;;
25045;SDS011;13044;49.304;12.840;2023-06-24T07:37:14;4.95;;;4.50;;
25045;SDS011;13044;49.304;12.840;2023-06-24T07:39:50;5.72;;;5.07;;
25045;SDS011;13044;49.304;12.840;2023-06-24T07:42:18;6.72;;;5.03;;
25045;SDS011;13044;49.304;12.840;2023-06-24T07:44:45;5.93;;;5.22;;
25045;SDS011;13044;49.304;12.840;2023-06-24T07:47:16;6.88;;;5.15;;
25045;SDS011;13044;49.304;12.840;2023-06-24T07:49:45;5.38;;;4.82;;
25045;SDS011;13044;49.304;12.840;2023-06-24T07:52:22;6.60;;;4.35;;
25045;SDS011;13044;49.304;12.840;2023-06-24T07:54:49;5.45;;;4.97;;
25045;SDS011;13044;49.304;12.840;2023-06-24T07:57:16;8.32;;;5.45;;
25045;SDS011;13044;49.304;12.840;2023-06-24T07:59:43;5.63;;;4.82;;
25045;SDS011;13044;49.304;12.840;2023-06-24T08:02:09;4.35;;;3.95;;
25045;SDS011;13044;49.304;12.840;2023-06-24T08:04:36;6.05;;;4.85;;
25045;SDS011;13044;49.304;12.840;2023-06-24T08:07:04;8.20;;;4.57;;
25045;SDS011;13044;49.304;12.840;2023-06-24T08:09:31;6.63;;;4.55;;
25045;SDS011;13044;49.304;12.840;2023-06-24T08:11:58;7.03;;;5.35;;
25045;SDS011;13044;49.304;12.840;2023-06-24T08:14:25;4.93;;;4.43;;
25045;SDS011;13044;49.304;12.840;2023-06-24T08:16:52;5.18;;;4.78;;
25045;SDS011;13044;49.304;12.840;2023-06-24T08:19:19;5.25;;;4.60;;
25045;SDS011;13044;49.304;12.840;2023-06-24T08:21:46;6.18;;;4.80;;
25045;SDS011;13044;49.304;12.840;2023-06-24T08:24:13;5.00;;;4.30;;
25045;SDS011;13044;49.304;12.840;2023-06-24T08:26:40;4.50;;;4.10;;
25045;SDS011;13044;49.304;12.840;2023-06-24T08:29:06;5.68;;;5.07;;
25045;SDS011;13044;49.304;12.840;2023-06-24T08:31:33;6.28;;;4.22;;
25045;SDS011;13044;49.304;12.840;2023-06-24T08:34:00;5.40;;;4.50;;
25045;SDS011;13044;49.304;12.840;2023-06-24T08:36:28;4.10;;;3.70;;
25045;SDS011;13044;49.304;12.840;2023-06-24T08:38:55;4.35;;;3.88;;
25045;SDS011;13044;49.304;12.840;2023-06-24T08:41:23;4.30;;;3.90;;
25045;SDS011;13044;49.304;12.840;2023-06-24T08:43:53;3.78;;;3.47;;
25045;SDS011;13044;49.304;12.840;2023-06-24T08:46:21;4.63;;;3.45;;
25045;SDS011;13044;49.304;12.840;2023-06-24T08:48:54;3.58;;;3.28;;
25045;SDS011;13044;49.304;12.840;2023-06-24T08:51:29;4.70;;;3.72;;
25045;SDS011;13044;49.304;12.840;2023-06-24T08:54:01;5.13;;;3.70;;
25045;SDS011;13044;49.304;12.840;2023-06-24T08:56:29;4.28;;;3.83;;
25045;SDS011;13044;49.304;12.840;2023-06-24T08:58:56;4.72;;;4.32;;
25045;SDS011;13044;49.304;12.840;2023-06-24T09:01:22;4.50;;;4.10;;
25045;SDS011;13044;49.304;12.840;2023-06-24T09:03:51;3.85;;;3.45;;
25045;SDS011;13044;49.304;12.840;2023-06-24T09:06:18;3.92;;;3.55;;
25045;SDS011;13044;49.304;12.840;2023-06-24T09:08:55;3.70;;;3.22;;
25045;SDS011;13044;49.304;12.840;2023-06-24T09:11:23;3.83;;;3.42;;
25045;SDS011;13044;49.304;12.840;2023-06-24T09:13:59;3.67;;;3.38;;
25045;SDS011;13044;49.304;12.840;2023-06-24T09:16:26;4.15;;;3.75;;
25045;SDS011;13044;49.304;12.840;2023-06-24T09:18:55;4.18;;;3.78;;
25045;SDS011;13044;49.304;12.840;2023-06-24T09:21:22;3.92;;;3.53;;
25045;SDS011;13044;49.304;12.840;2023-06-24T09:23:57;4.45;;;3.90;;
25045;SDS011;13044;49.304;12.840;2023-06-24T09:26:25;4.32;;;3.67;;
25045;SDS011;13044;49.304;12.840;2023-06-24T09:28:53;5.55;;;4.30;;
25045;SDS011;13044;49.304;12.840;2023-06-24T09:31:20;4.30;;;3.90;;
25045;SDS011;13044;49.304;12.840;2023-06-24T09:33:50;6.00;;;3.63;;
25045;SDS011;13044;49.304;12.840;2023-06-24T09:36:17;4.43;;;3.58;;
25045;SDS011;13044;49.304;12.840;2023-06-24T09:38:44;3.55;;;3.03;;
25045;SDS011;13044;49.304;12.840;2023-06-24T09:41:11;4.78;;;3.22;;
25045;SDS011;13044;49.304;12.840;2023-06-24T09:43:41;4.88;;;3.05;;
25045;SDS011;13044;49.304;12.840;2023-06-24T09:46:13;3.33;;;2.97;;
25045;SDS011;13044;49.304;12.840;2023-06-24T09:48:42;4.55;;;3.85;;
25045;SDS011;13044;49.304;12.840;2023-06-24T09:51:09;4.55;;;3.50;;
25045;SDS011;13044;49.304;12.840;2023-06-24T09:53:38;3.30;;;2.92;;
25045;SDS011;13044;49.304;12.840;2023-06-24T09:56:07;3.47;;;3.17;;
25045;SDS011;13044;49.304;12.840;2023-06-24T09:58:37;3.83;;;3.53;;
25045;SDS011;13044;49.304;12.840;2023-06-24T10:01:05;3.42;;;3.10;;
25045;SDS011;13044;49.304;12.840;2023-06-24T10:03:33;5.53;;;3.65;;
25045;SDS011;13044;49.304;12.840;2023-06-24T10:06:03;5.05;;;3.40;;
25045;SDS011;13044;49.304;12.840;2023-06-24T10:08:31;6.10;;;4.45;;
25045;SDS011;13044;49.304;12.840;2023-06-24T10:10:59;5.63;;;4.43;;
25045;SDS011;13044;49.304;12.840;2023-06-24T10:13:27;4.15;;;3.72;;
25045;SDS011;13044;49.304;12.840;2023-06-24T10:15:55;3.78;;;3.35;;
25045;SDS011;13044;49.304;12.840;2023-06-24T10:21:05;3.58;;;3.28;;
25045;SDS011;13044;49.304;12.840;2023-06-24T10:23:38;3.70;;;3.40;;
25045;SDS011;13044;49.304;12.840;2023-06-24T10:26:29;4.43;;;2.93;;
25045;SDS011;13044;49.304;12.840;2023-06-24T10:37:19;2.72;;;2.53;;
25045;SDS011;13044;49.304;12.840;2023-06-24T10:44:53;3.47;;;3.17;;
25045;SDS011;13044;49.304;12.840;2023-06-24T10:47:26;2.75;;;2.55;;
25045;SDS011;13044;49.304;12.840;2023-06-24T10:49:54;3.03;;;2.78;;
25045;SDS011;13044;49.304;12.840;2023-06-24T10:52:22;2.42;;;2.20;;
25045;SDS011;13044;49.304;12.840;2023-06-24T10:54:50;3.10;;;2.80;;
25045;SDS011;13044;49.304;12.840;2023-06-24T10:57:22;2.88;;;2.67;;
25045;SDS011;13044;49.304;12.840;2023-06-24T10:59:55;3.45;;;3.15;;
25045;SDS011;13044;49.304;12.840;2023-06-24T11:02:24;2.83;;;2.63;;
25045;SDS011;13044;49.304;12.840;2023-06-24T11:05:01;3.15;;;2.85;;
25045;SDS011;13044;49.304;12.840;2023-06-24T11:07:33;3.00;;;2.70;;
25045;SDS011;13044;49.304;12.840;2023-06-24T11:12:41;3.70;;;3.22;;
25045;SDS011;13044;49.304;12.840;2023-06-24T11:15:10;3.63;;;2.83;;
25045;SDS011;13044;49.304;12.840;2023-06-24T11:17:40;3.60;;;3.10;;
25045;SDS011;13044;49.304;12.840;2023-06-24T11:20:08;2.90;;;2.70;;
25045;SDS011;13044;49.304;12.840;2023-06-24T11:25:14;2.75;;;2.55;;
25045;SDS011;13044;49.304;12.840;2023-06-24T11:27:43;3.20;;;2.90;;
25045;SDS011;13044;49.304;12.840;2023-06-24T11:30:11;2.53;;;2.30;;
25045;SDS011;13044;49.304;12.840;2023-06-24T11:32:39;3.00;;;2.80;;
25045;SDS011;13044;49.304;12.840;2023-06-24T11:35:12;3.00;;;2.70;;
25045;SDS011;13044;49.304;12.840;2023-06-24T11:37:42;3.42;;;2.90;;
25045;SDS011;13044;49.304;12.840;2023-06-24T11:40:16;2.90;;;2.58;;
25045;SDS011;13044;49.304;12.840;2023-06-24T11:42:45;2.80;;;2.60;;
25045;SDS011;13044;49.304;12.840;2023-06-24T11:45:14;2.67;;;2.47;;
25045;SDS011;13044;49.304;12.840;2023-06-24T11:47:46;2.92;;;2.72;;
25045;SDS011;13044;49.304;12.840;2023-06-24T11:50:15;3.85;;;2.42;;
25045;SDS011;13044;49.304;12.840;2023-06-24T11:52:42;3.30;;;3.00;;
25045;SDS011;13044;49.304;12.840;2023-06-24T11:55:19;3.10;;;2.80;;
25045;SDS011;13044;49.304;12.840;2023-06-24T12:00:31;3.20;;;2.90;;
25045;SDS011;13044;49.304;12.840;2023-06-24T12:03:04;3.67;;;2.70;;
25045;SDS011;13044;49.304;12.840;2023-06-24T12:05:37;3.85;;;3.00;;
25045;SDS011;13044;49.304;12.840;2023-06-24T12:08:11;3.88;;;2.90;;
25045;SDS011;13044;49.304;12.840;2023-06-24T12:10:42;2.58;;;2.38;;
25045;SDS011;13044;49.304;12.840;2023-06-24T12:13:11;2.60;;;2.40;;
25045;SDS011;13044;49.304;12.840;2023-06-24T12:15:38;2.55;;;2.35;;
25045;SDS011;13044;49.304;12.840;2023-06-24T12:18:05;3.47;;;3.03;;
25045;SDS011;13044;49.304;12.840;2023-06-24T12:20:32;2.95;;;2.75;;
25045;SDS011;13044;49.304;12.840;2023-06-24T12:23:04;2.95;;;2.70;;
25045;SDS011;13044;49.304;12.840;2023-06-24T12:25:31;3.05;;;2.75;;
25045;SDS011;13044;49.304;12.840;2023-06-24T12:27:59;4.70;;;2.60;;
25045;SDS011;13044;49.304;12.840;2023-06-24T12:30:26;2.15;;;2.05;;
25045;SDS011;13044;49.304;12.840;2023-06-24T12:32:54;3.70;;;2.10;;
25045;SDS011;13044;49.304;12.840;2023-06-24T12:35:21;3.20;;;2.90;;
25045;SDS011;13044;49.304;12.840;2023-06-24T12:37:52;3.47;;;2.70;;
25045;SDS011;13044;49.304;12.840;2023-06-24T12:40:19;2.90;;;2.70;;
25045;SDS011;13044;49.304;12.840;2023-06-24T12:42:46;2.50;;;2.30;;
25045;SDS011;13044;49.304;12.840;2023-06-24T12:45:13;2.60;;;2.40;;
25045;SDS011;13044;49.304;12.840;2023-06-24T12:47:40;2.45;;;2.25;;
25045;SDS011;13044;49.304;12.840;2023-06-24T12:50:07;3.00;;;2.70;;
25045;SDS011;13044;49.304;12.840;2023-06-24T12:52:35;3.03;;;2.72;;
25045;SDS011;13044;49.304;12.840;2023-06-24T12:55:04;3.05;;;2.40;;
25045;SDS011;13044;49.304;12.840;2023-06-24T12:57:33;3.03;;;2.75;;
25045;SDS011;13044;49.304;12.840;2023-06-24T13:00:04;2.67;;;2.47;;
25045;SDS011;13044;49.304;12.840;2023-06-24T13:02:32;2.38;;;2.15;;
25045;SDS011;13044;49.304;12.840;2023-06-24T13:04:59;2.55;;;2.35;;
25045;SDS011;13044;49.304;12.840;2023-06-24T13:07:26;2.28;;;2.08;;
25045;SDS011;13044;49.304;12.840;2023-06-24T13:09:53;2.75;;;2.55;;
25045;SDS011;13044;49.304;12.840;2023-06-24T13:12:20;3.33;;;2.88;;
25045;SDS011;13044;49.304;12.840;2023-06-24T13:14:48;3.00;;;2.80;;
25045;SDS011;13044;49.304;12.840;2023-06-24T13:17:15;6.05;;;2.85;;
25045;SDS011;13044;49.304;12.840;2023-06-24T13:19:42;2.70;;;2.50;;
25045;SDS011;13044;49.304;12.840;2023-06-24T13:22:09;2.83;;;2.63;;
25045;SDS011;13044;49.304;12.840;2023-06-24T13:24:36;3.30;;;3.00;;
25045;SDS011;13044;49.304;12.840;2023-06-24T13:27:03;2.80;;;2.60;;
25045;SDS011;13044;49.304;12.840;2023-06-24T13:29:30;2.63;;;2.42;;
25045;SDS011;13044;49.304;12.840;2023-06-24T13:31:57;2.42;;;2.22;;
25045;SDS011;13044;49.304;12.840;2023-06-24T13:34:24;2.40;;;2.20;;
25045;SDS011;13044;49.304;12.840;2023-06-24T13:36:51;4.40;;;2.70;;
25045;SDS011;13044;49.304;12.840;2023-06-24T13:39:18;2.70;;;2.50;;
25045;SDS011;13044;49.304;12.840;2023-06-24T13:41:48;3.45;;;2.72;;
25045;SDS011;13044;49.304;12.840;2023-06-24T13:44:16;5.28;;;2.97;;
25045;SDS011;13044;49.304;12.840;2023-06-24T13:46:43;2.40;;;2.20;;
25045;SDS011;13044;49.304;12.840;2023-06-24T13:49:10;6.40;;;2.80;;
25045;SDS011;13044;49.304;12.840;2023-06-24T13:51:37;3.55;;;2.50;;
25045;SDS011;13044;49.304;12.840;2023-06-24T13:54:05;2.58;;;2.38;;
25045;SDS011;13044;49.304;12.840;2023-06-24T13:56:32;3.60;;;2.58;;
25045;SDS011;13044;49.304;12.840;2023-06-24T13:58:59;2.58;;;2.38;;
25045;SDS011;13044;49.304;12.840;2023-06-24T14:01:26;2.10;;;2.00;;
25045;SDS011;13044;49.304;12.840;2023-06-24T14:03:58;2.40;;;2.20;;
25045;SDS011;13044;49.304;12.840;2023-06-24T14:06:25;2.65;;;2.08;;
25045;SDS011;13044;49.304;12.840;2023-06-24T14:08:52;2.00;;;1.90;;
25045;SDS011;13044;49.304;12.840;2023-06-24T14:11:19;2.50;;;2.30;;
25045;SDS011;13044;49.304;12.840;2023-06-24T14:13:46;2.50;;;2.30;;
25045;SDS011;13044;49.304;12.840;2023-06-24T14:16:13;3.30;;;2.45;;
25045;SDS011;13044;49.304;12.840;2023-06-24T14:18:40;3.13;;;2.85;;
25045;SDS011;13044;49.304;12.840;2023-06-24T14:21:08;2.80;;;2.60;;
25045;SDS011;13044;49.304;12.840;2023-06-24T14:23:35;5.88;;;3.03;;
25045;SDS011;13044;49.304;12.840;2023-06-24T14:26:02;2.40;;;2.20;;
25045;SDS011;13044;49.304;12.840;2023-06-24T14:28:30;2.78;;;2.58;;
25045;SDS011;13044;49.304;12.840;2023-06-24T14:30:57;2.63;;;2.42;;
25045;SDS011;13044;49.304;12.840;2023-06-24T14:33:24;2.45;;;2.25;;
25045;SDS011;13044;49.304;12.840;2023-06-24T14:35:51;2.40;;;2.20;;
25045;SDS011;13044;49.304;12.840;2023-06-24T14:38:18;2.60;;;2.40;;
25045;SDS011;13044;49.304;12.840;2023-06-24T14:40:45;2.58;;;2.38;;
25045;SDS011;13044;49.304;12.840;2023-06-24T14:43:12;2.63;;;2.42;;
25045;SDS011;13044;49.304;12.840;2023-06-24T14:45:39;2.70;;;2.50;;
25045;SDS011;13044;49.304;12.840;2023-06-24T14:48:06;2.65;;;2.45;;
25045;SDS011;13044;49.304;12.840;2023-06-24T14:50:33;2.53;;;2.33;;
25045;SDS011;13044;49.304;12.840;2023-06-24T14:53:01;2.47;;;2.28;;
25045;SDS011;13044;49.304;12.840;2023-06-24T14:55:29;2.50;;;2.30;;
25045;SDS011;13044;49.304;12.840;2023-06-24T14:57:56;2.47;;;2.28;;
25045;SDS011;13044;49.304;12.840;2023-06-24T15:00:23;2.70;;;2.50;;
25045;SDS011;13044;49.304;12.840;2023-06-24T15:02:50;3.00;;;2.55;;
25045;SDS011;13044;49.304;12.840;2023-06-24T15:05:17;2.60;;;2.40;;
25045;SDS011;13044;49.304;12.840;2023-06-24T15:07:44;2.80;;;2.60;;
25045;SDS011;13044;49.304;12.840;2023-06-24T15:10:10;2.92;;;2.72;;
25045;SDS011;13044;49.304;12.840;2023-06-24T15:12:37;3.08;;;2.80;;
25045;SDS011;13044;49.304;12.840;2023-06-24T15:15:05;3.22;;;2.92;;
25045;SDS011;13044;49.304;12.840;2023-06-24T15:17:33;3.10;;;2.80;;